Deschaillons-Sur-Saint-Laurent, Canada
Current Conditions -  °F | °C
As of 4:00 PM on Thursday 27 Nov 2014 (Local Time) from CYRQ Reporting Station
Clear Clear  
Wind Chill: 27°   Ceiling: Unl
Heat Index: 27°   Visibility: 9mi
Dew Point: 10°   Wind: 3mph
Humidity: 51%   Direction: 360°N
Pressure: 30.04"   Gusts: NA
Location:  46.55°N, 72.12°W
Report Text: CYRQ 272100Z AUTO 36003KT 9SM CLR M03/M12 A3004 RMK SLP175
Loading
Personal Weather Stations






























Interactive Weather Map New forecast layout! Learn more

10-Day Weather Forecast

Advertisements
Track Severe Weather on mobile